Time;durP1;ratioP1;P1;durP2;ratioP2;P2;SDS_P1;SDS_P2;PMS_P1;PMS_P2;Temp;Humidity;BMP_temperature;BMP_pressure;BME280_temperature;BME280_humidity;BME280_pressure;Samples;Min_cycle;Max_cycle;Signal;HPM_P1;HPM_P2
2021/10/10 00:00:31;;;;;;;33.30;18.27;;;;;;;2.40;54.12;101320.04;1741634;80;21546;-68
2021/10/10 00:02:57;;;;;;;32.10;17.70;;;;;;;2.36;54.41;101317.81;1742299;80;21451;-70
2021/10/10 00:05:24;;;;;;;38.13;18.27;;;;;;;2.34;54.45;101314.31;1735296;80;21427;-68
2021/10/10 00:07:51;;;;;;;30.90;17.48;;;;;;;2.32;54.39;101312.98;1743785;80;21558;-70
2021/10/10 00:10:18;;;;;;;30.15;16.73;;;;;;;2.32;54.41;101312.98;1736680;80;21431;-70
2021/10/10 00:12:45;;;;;;;29.02;17.25;;;;;;;2.31;54.54;101313.81;1746612;80;21427;-68
2021/10/10 00:15:12;;;;;;;31.97;17.82;;;;;;;2.30;54.44;101313.38;1745528;80;21527;-69
2021/10/10 00:17:40;;;;;;;34.13;17.32;;;;;;;2.29;54.48;101309.03;1734850;80;21475;-69
2021/10/10 00:20:08;;;;;;;35.17;19.00;;;;;;;2.28;54.67;101307.70;1742123;80;21424;-67
2021/10/10 00:22:35;;;;;;;29.60;17.32;;;;;;;2.28;54.99;101302.50;1747756;80;21518;-68
2021/10/10 00:25:04;;;;;;;38.23;17.50;;;;;;;2.29;55.17;101306.43;1752956;80;21581;-67
2021/10/10 00:27:30;;;;;;;32.95;17.77;;;;;;;2.31;55.18;101306.03;1738300;80;22266;-68
2021/10/10 00:29:57;;;;;;;32.00;15.83;;;;;;;2.33;54.94;101313.42;1731128;80;21559;-67
2021/10/10 00:32:23;;;;;;;30.35;16.32;;;;;;;2.36;55.05;101309.16;1746221;80;21478;-68
2021/10/10 00:34:50;;;;;;;32.00;17.10;;;;;;;2.36;55.36;101311.32;1726776;80;22095;-68
2021/10/10 00:37:17;;;;;;;35.92;17.32;;;;;;;2.37;55.46;101313.05;1732837;80;21613;-69
2021/10/10 00:39:44;;;;;;;30.57;16.13;;;;;;;2.38;55.52;101312.65;1738344;80;21510;-69
2021/10/10 00:42:10;;;;;;;29.77;16.25;;;;;;;2.39;55.41;101307.45;1747416;80;21567;-68
2021/10/10 00:44:37;;;;;;;28.23;15.93;;;;;;;2.39;55.22;101311.35;1715474;81;21535;-67
2021/10/10 00:47:04;;;;;;;36.42;14.75;;;;;;;2.40;55.29;101308.36;1737167;81;21785;-67
2021/10/10 00:49:31;;;;;;;29.70;14.47;;;;;;;2.40;55.24;101300.56;1723680;81;21656;-67
2021/10/10 00:51:58;;;;;;;34.55;17.23;;;;;;;2.43;55.12;101302.80;1732031;81;21663;-67
2021/10/10 00:54:25;;;;;;;36.30;17.00;;;;;;;2.45;55.14;101299.80;1715964;81;21420;-68
2021/10/10 00:56:53;;;;;;;30.55;15.53;;;;;;;2.49;55.26;101296.83;1717631;81;21590;-70
2021/10/10 00:59:22;;;;;;;30.27;15.43;;;;;;;2.51;55.33;101301.19;1717744;81;21586;-70
2021/10/10 01:01:52;;;;;;;32.00;15.88;;;;;;;2.55;55.27;101297.36;1723426;81;21444;-71
2021/10/10 01:04:19;;;;;;;34.60;16.48;;;;;;;2.57;55.40;101295.66;1735415;80;21539;-73
2021/10/10 01:06:46;;;;;;;33.98;15.55;;;;;;;2.59;55.44;101302.61;1727672;81;21455;-75
2021/10/10 01:09:14;;;;;;;35.03;15.98;;;;;;;2.59;55.35;101297.42;1723555;81;21049;-74
2021/10/10 01:11:41;;;;;;;;;;;;;;;2.64;55.26;101300.11;1730436;81;21862;-73
2021/10/10 01:14:10;;;;;;;33.18;15.45;;;;;;;2.68;55.42;101301.47;1749556;81;20489;-72
2021/10/10 01:16:37;;;;;;;38.30;15.28;;;;;;;2.69;55.23;101294.54;1730215;81;21022;-70
2021/10/10 01:19:04;;;;;;;33.28;15.78;;;;;;;2.71;55.11;101295.44;1719171;81;21585;-70
2021/10/10 01:21:32;;;;;;;30.55;16.05;;;;;;;2.74;54.99;101286.41;1726001;81;21574;-70
2021/10/10 01:23:59;;;;;;;31.33;14.78;;;;;;;2.78;55.13;101292.09;1731370;81;21472;-69
2021/10/10 01:26:26;;;;;;;31.10;14.80;;;;;;;2.84;55.50;101296.50;1718550;81;21533;-70
2021/10/10 01:28:53;;;;;;;35.90;16.07;;;;;;;2.89;55.53;101294.86;1728698;81;21515;-69
2021/10/10 01:31:20;;;;;;;35.15;15.60;;;;;;;2.94;55.27;101294.51;1726180;81;21546;-71
2021/10/10 01:33:47;;;;;;;35.38;16.07;;;;;;;2.98;55.08;101296.30;1735645;80;21641;-70
2021/10/10 01:36:14;;;;;;;33.02;14.65;;;;;;;3.02;54.94;101290.72;1718862;80;22195;-71
2021/10/10 01:38:41;;;;;;;37.65;14.83;;;;;;;3.07;54.95;101291.64;1740861;81;21550;-72
2021/10/10 01:41:10;;;;;;;31.85;14.63;;;;;;;3.10;54.89;101289.09;1721083;81;21578;-71
2021/10/10 01:43:37;;;;;;;31.23;14.45;;;;;;;3.13;54.68;101291.75;1715772;81;21093;-72
2021/10/10 01:46:04;;;;;;;35.98;15.00;;;;;;;3.16;54.34;101288.30;1745349;80;21037;-72
2021/10/10 01:48:31;;;;;;;39.75;15.13;;;;;;;3.15;54.37;101288.73;1738452;80;21574;-72
2021/10/10 01:50:58;;;;;;;30.17;13.77;;;;;;;3.18;54.43;101286.59;1701756;82;21431;-71
2021/10/10 01:53:26;;;;;;;33.18;13.88;;;;;;;3.19;54.46;101284.03;1738673;80;21124;-72
2021/10/10 01:55:52;;;;;;;34.43;13.93;;;;;;;3.20;54.36;101282.29;1744931;80;21601;-71
2021/10/10 01:58:19;;;;;;;33.20;14.87;;;;;;;3.20;54.52;101284.48;1739374;80;20978;-72
2021/10/10 02:00:46;;;;;;;29.60;15.13;;;;;;;3.19;54.94;101285.76;1734260;80;21824;-72
2021/10/10 02:03:13;;;;;;;33.20;14.63;;;;;;;3.20;55.24;101288.79;1731385;80;20956;-72
2021/10/10 02:05:39;;;;;;;28.92;14.30;;;;;;;3.21;55.34;101291.41;1726153;80;21494;-72
2021/10/10 02:08:06;;;;;;;35.70;14.90;;;;;;;3.19;55.38;101286.62;1737126;80;21700;-72
2021/10/10 02:10:33;;;;;;;33.90;15.38;;;;;;;3.20;55.29;101290.09;1740899;80;21530;-73
2021/10/10 02:13:00;;;;;;;33.75;15.20;;;;;;;3.23;55.21;101292.31;1727201;80;22154;-71
2021/10/10 02:15:27;;;;;;;36.58;16.37;;;;;;;3.27;55.28;101291.92;1732198;80;21553;-71
2021/10/10 02:17:54;;;;;;;34.03;17.10;;;;;;;3.28;54.99;101297.59;1737247;80;21494;-71
2021/10/10 02:20:20;;;;;;;37.42;17.55;;;;;;;3.30;54.92;101292.84;1741215;80;21554;-70
2021/10/10 02:22:47;;;;;;;43.60;19.42;;;;;;;3.34;54.98;101295.50;1730468;80;21774;-70
2021/10/10 02:25:15;;;;;;;42.98;18.15;;;;;;;3.36;54.86;101295.09;1723226;80;22159;-71
2021/10/10 02:27:43;;;;;;;35.70;17.73;;;;;;;3.38;54.75;101292.08;1745765;80;21530;-68
2021/10/10 02:30:10;;;;;;;36.93;18.07;;;;;;;3.41;54.80;101289.49;1742381;80;21577;-68
2021/10/10 02:32:38;;;;;;;33.85;17.45;;;;;;;3.42;54.67;101286.92;1734989;80;21654;-70
2021/10/10 02:35:05;;;;;;;42.23;17.77;;;;;;;3.40;54.68;101283.43;1728806;80;21565;-68
2021/10/10 02:37:32;;;;;;;;;;;;;;;3.43;54.75;101292.58;1742859;80;21773;-68
2021/10/10 02:39:59;;;;;;;36.10;17.90;;;;;;;3.43;54.92;101289.98;1727130;80;20429;-67
2021/10/10 02:42:25;;;;;;;36.95;17.57;;;;;;;3.40;54.71;101295.13;1738965;80;21555;-69
2021/10/10 02:44:54;;;;;;;40.43;17.10;;;;;;;3.41;54.84;101296.89;1733191;80;21503;-69
2021/10/10 02:47:21;;;;;;;43.87;17.30;;;;;;;3.40;54.77;101292.53;1735502;80;21538;-70
2021/10/10 02:49:47;;;;;;;44.88;17.07;;;;;;;3.42;54.80;101296.02;1725932;80;21807;-70
2021/10/10 02:52:16;;;;;;;40.45;17.27;;;;;;;3.44;54.79;101293.45;1739235;80;21545;-70
2021/10/10 02:54:44;;;;;;;40.95;17.12;;;;;;;3.45;54.76;101297.81;1733684;80;21514;-70
2021/10/10 02:57:11;;;;;;;37.55;17.80;;;;;;;3.44;54.75;101295.61;1754673;80;21550;-69
2021/10/10 02:59:39;;;;;;;36.05;16.52;;;;;;;3.44;54.75;101293.01;1729716;80;21535;-70
2021/10/10 03:02:05;;;;;;;37.13;16.48;;;;;;;3.45;54.87;101294.77;1738648;80;22128;-69
2021/10/10 03:04:34;;;;;;;31.62;16.60;;;;;;;3.48;54.98;101293.52;1732411;80;21546;-70
2021/10/10 03:07:01;;;;;;;32.80;16.40;;;;;;;3.50;55.19;101294.41;1725125;80;21483;-70
2021/10/10 03:09:28;;;;;;;33.63;15.75;;;;;;;3.53;55.30;101291.40;1741944;80;21554;-70
2021/10/10 03:11:55;;;;;;;37.20;17.40;;;;;;;3.53;55.36;101289.66;1732634;80;21436;-70
2021/10/10 03:14:22;;;;;;;37.03;15.83;;;;;;;3.56;55.57;101291.41;1748403;80;21793;-69
2021/10/10 03:16:48;;;;;;;37.85;16.95;;;;;;;3.55;55.52;101286.66;1733658;80;21472;-69
2021/10/10 03:19:15;;;;;;;37.08;16.00;;;;;;;3.57;55.58;101289.28;1741434;80;21487;-69
2021/10/10 03:21:42;;;;;;;39.13;17.45;;;;;;;3.56;55.66;101284.52;1738114;80;21046;-69
2021/10/10 03:24:10;;;;;;;36.70;17.73;;;;;;;3.58;55.79;101286.70;1737343;80;21614;-69
2021/10/10 03:26:36;;;;;;;34.73;16.25;;;;;;;3.59;55.94;101282.36;1736661;80;23956;-69
2021/10/10 03:29:03;;;;;;;36.17;16.42;;;;;;;3.57;56.03;101279.73;1745760;80;21518;-69
2021/10/10 03:31:30;;;;;;;32.10;17.07;;;;;;;3.55;56.13;101276.69;1735322;80;21589;-68
2021/10/10 03:33:57;;;;;;;36.23;16.25;;;;;;;3.51;56.27;101275.77;1731588;80;21535;-69
2021/10/10 03:36:24;;;;;;;40.83;17.92;;;;;;;3.48;56.35;101264.92;1724132;80;21581;-69
2021/10/10 03:38:50;;;;;;;38.92;17.52;;;;;;;3.47;56.40;101267.49;1746411;80;22162;-70
2021/10/10 03:41:17;;;;;;;39.58;17.10;;;;;;;3.45;56.41;101272.67;1721639;80;21527;-69
2021/10/10 03:43:44;;;;;;;39.60;18.23;;;;;;;3.43;56.57;101267.87;1726348;80;21539;-68
2021/10/10 03:46:11;;;;;;;34.50;17.57;;;;;;;3.43;56.66;101269.18;1743039;80;22339;-70
2021/10/10 03:48:38;;;;;;;34.25;17.32;;;;;;;3.43;56.59;101266.58;1736963;80;21556;-70
2021/10/10 03:51:05;;;;;;;37.30;18.45;;;;;;;3.43;56.43;101258.78;1740683;80;21812;-69
2021/10/10 03:54:05;;;;;;;38.60;18.45;;;;;;;3.42;56.41;101257.45;1752873;80;21604;-69
2021/10/10 03:56:04;;;;;;;36.05;18.32;;;;;;;3.44;56.36;101256.61;1737861;80;21502;-70
2021/10/10 03:58:31;;;;;;;40.78;18.37;;;;;;;3.46;56.25;101260.09;1741643;80;21063;-70
2021/10/10 04:00:58;;;;;;;35.70;17.77;;;;;;;3.47;56.39;101260.55;1733520;80;21455;-71
2021/10/10 04:03:24;;;;;;;36.48;18.50;;;;;;;3.50;56.64;101259.30;1747305;80;21439;-71
2021/10/10 04:05:51;;;;;;;43.40;19.02;;;;;;;3.51;56.67;101250.63;1753656;80;21132;-68
2021/10/10 04:08:18;;;;;;;35.13;17.55;;;;;;;3.55;56.75;101252.84;1738237;80;21116;-67
2021/10/10 04:10:44;;;;;;;33.78;18.17;;;;;;;3.55;56.58;101254.58;1748962;80;21582;-67
2021/10/10 04:13:11;;;;;;;36.13;17.37;;;;;;;3.53;56.61;101251.95;1743203;80;21554;-68
2021/10/10 04:15:38;;;;;;;39.98;18.92;;;;;;;3.51;56.73;101252.36;1741523;80;21792;-67
2021/10/10 04:18:05;;;;;;;45.35;18.73;;;;;;;3.47;56.94;101252.75;1746921;80;21482;-71
2021/10/10 04:20:32;;;;;;;35.13;17.82;;;;;;;3.48;57.10;101248.41;1746459;80;21519;-71
2021/10/10 04:22:59;;;;;;;42.45;17.92;;;;;;;3.47;57.22;101251.45;1749972;80;21513;-72
2021/10/10 04:25:26;;;;;;;38.63;18.15;;;;;;;3.49;57.25;101253.64;1735128;80;21494;-71
2021/10/10 04:27:53;;;;;;;38.98;17.32;;;;;;;3.49;57.31;101256.24;1732346;80;22084;-72
2021/10/10 04:30:19;;;;;;;40.45;16.73;;;;;;;3.48;57.41;101253.62;1728917;80;21622;-71
2021/10/10 04:32:46;;;;;;;38.67;17.50;;;;;;;3.49;57.58;101255.38;1754390;80;21565;-71
2021/10/10 04:35:13;;;;;;;37.78;17.32;;;;;;;3.54;57.52;101251.52;1726046;80;21017;-70
2021/10/10 04:37:40;;;;;;;38.30;17.75;;;;;;;3.57;57.51;101258.06;1736175;80;21581;-72
2021/10/10 04:40:08;;;;;;;31.75;17.15;;;;;;;3.60;57.35;101263.28;1752509;80;21793;-71
2021/10/10 04:42:36;;;;;;;41.25;17.80;;;;;;;3.61;57.28;101251.60;1749252;80;21578;-71
2021/10/10 04:45:04;;;;;;;34.20;16.70;;;;;;;3.64;57.16;101252.09;1743328;80;21576;-71
2021/10/10 04:47:31;;;;;;;32.42;17.65;;;;;;;3.65;57.16;101255.11;1743287;80;21596;-71
2021/10/10 04:49:58;;;;;;;32.53;17.43;;;;;;;3.67;57.12;101259.91;1750063;80;21419;-71
2021/10/10 04:52:25;;;;;;;36.50;18.50;;;;;;;3.67;57.30;101252.09;1747971;80;21823;-70
2021/10/10 04:54:52;;;;;;;34.23;17.98;;;;;;;3.68;57.48;101254.72;1744678;80;21060;-71
2021/10/10 04:57:19;;;;;;;30.43;16.53;;;;;;;3.70;57.71;101249.55;1751509;80;21573;-71
2021/10/10 04:59:53;;;;;;;37.48;16.87;;;;;;;3.71;57.85;101253.87;1731104;80;22740;-70
2021/10/10 05:02:20;;;;;;;34.73;17.55;;;;;;;3.74;58.02;101254.36;1734855;80;21570;-70
2021/10/10 05:04:47;;;;;;;32.05;16.85;;;;;;;3.76;57.94;101250.03;1744900;80;21761;-68
2021/10/10 05:07:14;;;;;;;36.65;16.12;;;;;;;3.78;57.98;101250.92;1729230;80;21644;-67
2021/10/10 05:09:41;;;;;;;33.07;16.00;;;;;;;3.82;57.98;101260.06;1745173;80;21056;-62
2021/10/10 05:12:08;;;;;;;33.02;16.32;;;;;;;3.86;57.89;101259.27;1738487;80;21518;-67
2021/10/10 05:14:36;;;;;;;32.17;15.80;;;;;;;3.90;57.94;101263.64;1749852;80;21547;-65
2021/10/10 05:17:03;;;;;;;35.50;16.73;;;;;;;3.95;57.86;101269.31;1749627;80;22146;-66
2021/10/10 05:19:30;;;;;;;33.83;16.52;;;;;;;3.98;57.99;101265.45;1747711;80;21095;-63
2021/10/10 05:21:57;;;;;;;31.87;16.65;;;;;;;4.03;57.75;101271.55;1745521;80;21588;-66
2021/10/10 05:24:23;;;;;;;28.02;14.98;;;;;;;4.10;57.67;101270.77;1742489;80;21427;-65
2021/10/10 05:26:50;;;;;;;31.85;16.35;;;;;;;4.16;57.66;101272.55;1760852;80;21121;-64
2021/10/10 05:29:17;;;;;;;35.78;16.23;;;;;;;4.23;57.69;101276.97;1744384;80;22129;-63
2021/10/10 05:31:43;;;;;;;33.23;15.58;;;;;;;4.29;57.34;101274.41;1743563;80;21506;-60
2021/10/10 05:34:10;;;;;;;30.48;16.27;;;;;;;4.35;57.37;101273.59;1733213;80;21649;-62
2021/10/10 05:36:38;;;;;;;;;;;;;;;4.43;57.26;101279.33;1734942;80;21487;-61
2021/10/10 05:39:04;;;;;;;26.10;14.50;;;;;;;4.49;57.74;101282.41;1735580;80;20174;-61
2021/10/10 05:41:31;;;;;;;29.82;17.12;;;;;;;4.54;57.17;101275.92;1746517;80;22083;-62
2021/10/10 05:43:58;;;;;;;31.07;16.10;;;;;;;4.60;56.92;101282.51;1743918;80;21423;-62
2021/10/10 05:46:24;;;;;;;30.32;16.00;;;;;;;4.62;56.75;101279.48;1732130;80;21522;-62
2021/10/10 05:48:51;;;;;;;32.98;16.12;;;;;;;4.57;56.74;101278.56;1734214;80;21519;-62
2021/10/10 05:51:18;;;;;;;31.70;16.12;;;;;;;4.56;56.90;101279.41;1741720;80;21649;-62
2021/10/10 05:53:44;;;;;;;28.83;17.48;;;;;;;4.53;57.91;101278.96;1743956;80;21851;-62
2021/10/10 05:56:11;;;;;;;28.17;16.00;;;;;;;4.53;58.16;101285.48;1722291;80;21499;-61
2021/10/10 05:58:43;;;;;;;29.45;16.87;;;;;;;4.58;58.36;101283.79;1728353;80;21452;-60
2021/10/10 06:01:09;;;;;;;26.15;16.32;;;;;;;4.64;57.98;101285.13;1734646;80;21013;-61
2021/10/10 06:03:37;;;;;;;34.73;16.62;;;;;;;4.70;58.21;101285.61;1743954;80;21664;-63
2021/10/10 06:06:04;;;;;;;29.40;16.00;;;;;;;4.77;58.48;101283.94;1727406;80;21713;-64
2021/10/10 06:08:32;;;;;;;38.60;18.42;;;;;;;4.82;58.20;101284.81;1738517;80;21577;-64
2021/10/10 06:10:58;;;;;;;38.50;17.87;;;;;;;4.88;57.86;101281.84;1720065;80;21570;-65
2021/10/10 06:13:25;;;;;;;39.63;19.82;;;;;;;4.97;57.82;101286.25;1743241;80;21041;-64
2021/10/10 06:15:51;;;;;;;46.42;19.02;;;;;;;5.05;56.93;101283.25;1745142;80;21544;-65
2021/10/10 06:18:18;;;;;;;33.63;17.87;;;;;;;5.14;56.54;101284.16;1720881;80;21724;-66
2021/10/10 06:20:45;;;;;;;43.55;19.37;;;;;;;5.20;56.36;101281.60;1744004;80;21448;-66
2021/10/10 06:23:12;;;;;;;46.63;18.45;;;;;;;5.28;56.57;101286.42;1729744;80;21490;-65
2021/10/10 06:25:40;;;;;;;36.80;16.75;;;;;;;5.36;56.22;101284.70;1739860;80;21514;-64
2021/10/10 06:28:07;;;;;;;38.78;17.20;;;;;;;5.45;55.99;101282.14;1744840;80;21447;-64
2021/10/10 06:30:34;;;;;;;42.50;17.12;;;;;;;5.52;55.88;101283.05;1742796;80;21863;-64
2021/10/10 06:33:00;;;;;;;31.37;16.70;;;;;;;5.66;55.75;101285.27;1714910;80;21537;-65
2021/10/10 06:35:27;;;;;;;31.82;16.35;;;;;;;5.76;55.32;101284.86;1725101;80;21517;-63
2021/10/10 06:37:53;;;;;;;36.83;16.48;;;;;;;5.87;55.21;101285.34;1722820;80;21561;-64
2021/10/10 06:40:21;;;;;;;36.50;16.73;;;;;;;5.98;55.07;101288.88;1732582;80;21550;-63
2021/10/10 06:42:47;;;;;;;33.15;14.93;;;;;;;6.09;54.60;101290.22;1742374;80;21807;-65
2021/10/10 06:45:15;;;;;;;26.27;13.10;;;;;;;6.19;54.25;101287.61;1735073;80;21570;-65
2021/10/10 06:47:41;;;;;;;23.70;13.83;;;;;;;6.26;53.80;101291.55;1714012;82;21567;-64
2021/10/10 06:50:08;;;;;;;34.45;14.70;;;;;;;6.33;53.52;101286.75;1717222;82;21499;-64
2021/10/10 06:52:37;;;;;;;30.08;14.85;;;;;;;6.45;52.87;101289.38;1709115;81;21594;-64
2021/10/10 06:55:05;;;;;;;35.90;15.40;;;;;;;6.57;52.87;101288.09;1694674;82;21748;-63
2021/10/10 06:57:34;;;;;;;34.23;14.87;;;;;;;6.68;52.64;101292.44;1710687;82;21629;-66
2021/10/10 07:00:01;;;;;;;32.75;14.80;;;;;;;6.76;52.94;101290.26;1702538;82;21054;-67
2021/10/10 07:02:29;;;;;;;35.52;13.35;;;;;;;6.85;53.02;101284.13;1701480;82;21081;-67
2021/10/10 07:04:57;;;;;;;33.00;15.00;;;;;;;6.95;52.13;101290.21;1711163;82;21561;-66
2021/10/10 07:07:24;;;;;;;;;;;;;;;7.05;51.53;101292.40;1708364;82;21596;-63
2021/10/10 07:09:51;;;;;;;19.60;10.57;;;;;;;7.14;51.43;101294.55;1699309;82;20526;-64
2021/10/10 07:12:17;;;;;;;26.35;11.85;;;;;;;7.24;50.99;101289.30;1693168;82;21492;-66
2021/10/10 07:14:47;;;;;;;22.17;11.05;;;;;;;7.39;50.13;101286.19;1708607;81;21495;-64
2021/10/10 07:17:15;;;;;;;21.17;11.53;;;;;;;7.54;49.69;101294.87;1692764;82;21559;-67
2021/10/10 07:19:52;;;;;;;21.05;11.05;;;;;;;7.69;49.58;101287.39;1701959;82;22006;-66
2021/10/10 07:25:00;;;;;;;30.90;10.58;;;;;;;7.85;48.17;101279.86;1711805;82;21550;-66
2021/10/10 07:27:23;;;;;;;24.12;11.10;;;;;;;7.98;48.06;101285.91;1714506;82;21621;-65
2021/10/10 07:29:51;;;;;;;22.62;10.23;;;;;;;8.11;48.25;101282.33;1707932;82;21557;-65
2021/10/10 07:32:17;;;;;;;17.62;10.90;;;;;;;8.23;46.95;101281.81;1706974;82;21839;-61
2021/10/10 07:34:44;;;;;;;16.73;9.95;;;;;;;8.36;47.38;101273.87;1716040;81;21600;-65
2021/10/10 07:37:10;;;;;;;21.97;10.45;;;;;;;8.54;47.22;101278.56;1714865;82;21606;-65
2021/10/10 07:39:39;;;;;;;22.32;11.78;;;;;;;8.75;46.63;101273.57;1695657;82;21536;-64
2021/10/10 07:42:05;;;;;;;21.93;10.60;;;;;;;8.96;46.60;101279.05;1692199;82;21526;-65
2021/10/10 07:44:37;;;;;;;23.02;11.00;;;;;;;9.15;46.08;101284.97;1696168;82;22040;-64
2021/10/10 07:49:37;;;;;;;19.52;10.88;;;;;;;9.54;44.86;101271.82;1692583;80;21513;-65
2021/10/10 07:52:05;;;;;;;22.65;11.63;;;;;;;9.69;43.48;101263.33;1737288;80;21431;-65
2021/10/10 07:54:33;;;;;;;23.62;11.88;;;;;;;9.71;44.17;101269.43;1735099;80;21546;-65
2021/10/10 07:59:46;;;;;;;17.27;9.95;;;;;;;9.98;44.51;101265.54;1799186;78;23307;-64
2021/10/10 08:02:13;;;;;;;20.43;10.08;;;;;;;10.10;44.25;101269.77;1761240;80;21576;-64
2021/10/10 08:04:40;;;;;;;20.60;10.15;;;;;;;10.23;43.77;101262.11;1760235;80;22210;-64
2021/10/10 08:07:07;;;;;;;22.45;10.43;;;;;;;10.37;43.24;101261.06;1762104;80;21537;-65
2021/10/10 08:09:34;;;;;;;19.07;10.03;;;;;;;10.53;42.95;101262.55;1773259;80;21586;-64
2021/10/10 08:12:03;;;;;;;19.12;8.58;;;;;;;10.64;42.56;101265.87;1766903;79;21609;-66
2021/10/10 08:14:31;;;;;;;15.68;9.50;;;;;;;10.78;41.97;101265.61;1702851;82;21514;-64
2021/10/10 08:16:58;;;;;;;17.10;8.60;;;;;;;10.89;41.14;101270.69;1712059;81;21792;-63
2021/10/10 08:19:24;;;;;;;14.03;9.78;;;;;;;10.81;41.16;101265.57;1696868;82;21514;-62
2021/10/10 08:21:51;;;;;;;16.07;8.67;;;;;;;10.89;41.81;101273.33;1701851;82;21466;-63
2021/10/10 08:24:19;;;;;;;15.03;8.20;;;;;;;11.02;41.63;101270.88;1716932;81;21519;-63
2021/10/10 08:26:47;;;;;;;10.18;7.45;;;;;;;11.14;41.20;101273.72;1709109;83;21644;-63
2021/10/10 08:29:16;;;;;;;11.78;7.60;;;;;;;11.27;40.60;101270.41;1697583;82;22247;-64
2021/10/10 08:31:44;;;;;;;10.15;7.65;;;;;;;11.40;40.34;101272.35;1690280;81;21514;-64
2021/10/10 08:34:10;;;;;;;13.43;7.60;;;;;;;11.51;39.90;101278.27;1690905;82;21487;-64
2021/10/10 08:36:37;;;;;;;18.90;7.95;;;;;;;11.61;39.64;101270.58;1691995;83;21626;-64
2021/10/10 08:39:03;;;;;;;11.22;7.78;;;;;;;11.73;39.92;101268.13;1682373;83;21522;-64
2021/10/10 08:41:34;;;;;;;18.65;8.13;;;;;;;11.84;39.56;101268.75;1688168;83;21606;-65
2021/10/10 08:44:02;;;;;;;13.22;7.65;;;;;;;11.96;39.22;101261.50;1694917;83;21646;-63
2021/10/10 08:46:32;;;;;;;12.65;7.10;;;;;;;12.00;38.76;101262.73;1702528;82;21609;-69
2021/10/10 08:48:58;;;;;;;13.48;7.80;;;;;;;12.08;38.51;101263.87;1702604;82;21641;-66
2021/10/10 08:51:25;;;;;;;12.75;6.60;;;;;;;12.15;38.20;101257.98;1698626;83;21513;-66
2021/10/10 08:53:52;;;;;;;8.18;6.55;;;;;;;12.24;38.09;101257.77;1712188;82;21661;-64
2021/10/10 08:56:18;;;;;;;13.10;6.65;;;;;;;12.36;37.82;101257.95;1725939;81;21569;-66
2021/10/10 08:58:46;;;;;;;8.83;6.83;;;;;;;12.45;37.59;101253.73;1699769;83;21583;-64
2021/10/10 09:01:16;;;;;;;;;;;;;;;12.56;37.13;101258.75;1746593;80;21558;-64
2021/10/10 09:03:48;;;;;;;9.23;6.08;;;;;;;12.62;36.42;101262.12;1752278;79;20481;-62
2021/10/10 09:06:16;;;;;;;10.18;6.90;;;;;;;12.69;36.58;101260.17;1751479;80;21843;-62
2021/10/10 09:08:43;;;;;;;10.05;6.25;;;;;;;12.82;36.88;101251.48;1746610;80;21089;-61
2021/10/10 09:11:10;;;;;;;10.70;6.23;;;;;;;12.98;36.52;101252.81;1744397;80;21561;-62
2021/10/10 09:13:42;;;;;;;9.45;5.92;;;;;;;13.12;36.16;101249.78;1754254;80;21503;-62
2021/10/10 09:16:10;;;;;;;11.93;6.72;;;;;;;13.21;35.66;101254.81;1747665;80;20987;-62
2021/10/10 09:18:41;;;;;;;;;;;;;;;13.30;34.95;101247.52;1755730;80;21797;-62
2021/10/10 09:21:22;;;;;;;11.40;6.47;;;;;;;13.36;34.79;101247.41;1750415;80;20575;-64
2021/10/10 09:23:51;;;;;;;11.33;5.90;;;;;;;13.51;35.30;101240.34;1751531;80;21656;-64
2021/10/10 09:26:19;;;;;;;9.83;6.75;;;;;;;13.58;34.96;101236.62;1751299;80;21448;-63
2021/10/10 09:28:47;;;;;;;11.80;6.92;;;;;;;13.68;35.08;101238.52;1746067;80;21573;-63
2021/10/10 09:31:14;;;;;;;;;;;;;;;13.82;34.81;101236.33;1739683;80;22020;-62
2021/10/10 09:33:49;;;;;;;10.18;6.50;;;;;;;14.00;34.18;101237.98;1755967;80;20556;-63
2021/10/10 09:36:22;;;;;;;12.23;6.70;;;;;;;14.16;34.39;101233.05;1739001;80;21518;-63
2021/10/10 09:38:56;;;;;;;14.35;7.15;;;;;;;14.40;34.43;101230.92;1741259;79;21458;-63
2021/10/10 09:41:27;;;;;;;13.98;7.28;;;;;;;14.65;34.05;101231.44;1753860;80;21597;-63
2021/10/10 09:46:45;;;;;;;14.47;7.78;;;;;;;15.24;33.84;101227.59;1748400;80;21029;-62
2021/10/10 09:49:32;;;;;;;13.78;7.87;;;;;;;15.53;33.55;101229.59;1756167;80;21065;-62
2021/10/10 09:52:12;;;;;;;11.10;6.87;;;;;;;15.84;33.34;101222.69;1744174;80;21408;-63
2021/10/10 09:54:57;;;;;;;11.93;7.33;;;;;;;15.99;32.53;101220.33;1760474;79;21467;-62
2021/10/10 09:57:26;;;;;;;11.53;7.10;;;;;;;16.09;32.34;101221.70;1744782;80;21492;-62
2021/10/10 09:59:53;;;;;;;13.25;7.55;;;;;;;16.12;31.77;101213.59;1747473;80;21018;-62
2021/10/10 10:02:38;;;;;;;10.30;6.87;;;;;;;16.20;31.35;101215.48;1748080;80;21499;-64
2021/10/10 10:05:05;;;;;;;9.15;6.83;;;;;;;16.28;31.04;101211.19;1736902;80;21042;-64
2021/10/10 10:07:32;;;;;;;12.18;6.62;;;;;;;16.44;31.15;101207.41;1747730;80;21719;-63
2021/10/10 10:10:01;;;;;;;9.83;7.10;;;;;;;16.64;31.08;101206.09;1690569;82;21404;-63
2021/10/10 10:12:28;;;;;;;12.20;7.08;;;;;;;16.72;30.33;101208.41;1752269;80;20963;-65
2021/10/10 10:14:59;;;;;;;16.67;7.67;;;;;;;16.76;30.02;101206.48;1748310;80;21475;-68
2021/10/10 10:17:27;;;;;;;8.98;6.87;;;;;;;16.78;30.33;101209.47;1751201;80;21492;-64
2021/10/10 10:19:56;;;;;;;9.25;5.87;;;;;;;16.89;30.51;101196.60;1748815;80;22225;-66
2021/10/10 10:22:23;;;;;;;10.15;5.67;;;;;;;16.97;30.33;101197.62;1756428;80;22058;-64
2021/10/10 10:24:49;;;;;;;8.35;5.50;;;;;;;17.01;29.21;101199.64;1750714;80;21472;-64
2021/10/10 10:27:16;;;;;;;8.30;5.80;;;;;;;16.98;29.78;101199.33;1750896;80;21562;-64
2021/10/10 10:29:46;;;;;;;7.20;5.07;;;;;;;17.01;29.46;101191.23;1743423;79;21594;-66
2021/10/10 10:32:15;;;;;;;9.73;5.22;;;;;;;16.99;29.27;101189.11;1747857;80;21047;-65
2021/10/10 10:35:13;;;;;;;7.35;5.25;;;;;;;16.98;29.35;101190.03;1733007;80;21467;-65
2021/10/10 10:37:47;;;;;;;7.75;4.50;;;;;;;17.05;29.29;101194.61;1755686;80;21432;-63
2021/10/10 10:40:28;;;;;;;13.48;4.67;;;;;;;17.06;28.86;101193.19;1743412;80;21542;-66
2021/10/10 10:42:57;;;;;;;7.42;4.55;;;;;;;17.04;29.06;101184.91;1746335;80;21005;-65
2021/10/10 10:45:29;;;;;;;6.22;4.33;;;;;;;17.08;29.04;101184.72;1740790;80;21572;-63
2021/10/10 10:48:06;;;;;;;6.12;4.12;;;;;;;17.17;28.16;101180.75;1744429;80;21508;-64
2021/10/10 10:50:40;;;;;;;8.48;4.08;;;;;;;17.13;28.38;101183.16;1748960;80;21566;-64
2021/10/10 10:53:15;;;;;;;10.15;4.08;;;;;;;17.05;28.27;101180.00;1746318;80;21593;-64
2021/10/10 10:55:44;;;;;;;8.18;3.40;;;;;;;17.05;28.70;101174.21;1742520;80;21498;-64
2021/10/10 10:58:15;;;;;;;5.17;4.17;;;;;;;17.10;28.23;101170.89;1756382;80;21566;-64
2021/10/10 11:00:49;;;;;;;12.80;4.50;;;;;;;17.21;28.10;101173.50;1751193;80;21419;-64
2021/10/10 11:03:24;;;;;;;10.35;3.95;;;;;;;17.27;28.12;101171.44;1749767;79;21555;-69
2021/10/10 11:06:07;;;;;;;6.62;4.22;;;;;;;17.32;28.28;101168.55;1761699;79;21555;-67
2021/10/10 11:08:42;;;;;;;5.92;4.00;;;;;;;17.35;28.29;101172.41;1755545;79;21535;-64
2021/10/10 11:11:16;;;;;;;12.88;4.22;;;;;;;17.41;27.86;101170.78;1755369;80;21566;-67
2021/10/10 11:13:49;;;;;;;7.53;4.05;;;;;;;17.45;27.79;101169.70;1754056;79;21070;-64
2021/10/10 11:16:32;;;;;;;8.95;4.45;;;;;;;17.53;27.86;101164.48;1754499;79;21089;-65
2021/10/10 11:19:11;;;;;;;5.47;4.37;;;;;;;17.63;27.77;101161.32;1762096;79;21534;-66
2021/10/10 11:21:45;;;;;;;9.45;3.77;;;;;;;17.63;27.45;101164.42;1759892;79;27361;-65
2021/10/10 11:24:22;;;;;;;8.48;3.95;;;;;;;17.59;27.63;101153.55;1757118;79;21656;-65
2021/10/10 11:26:51;;;;;;;5.35;3.50;;;;;;;17.69;27.00;101152.19;1755327;79;21590;-65
2021/10/10 11:29:22;;;;;;;10.28;4.92;;;;;;;17.68;26.60;101150.45;1752607;79;21554;-65
2021/10/10 11:31:49;;;;;;;8.00;4.05;;;;;;;17.68;26.78;101148.64;1759799;79;20994;-64
2021/10/10 11:34:18;;;;;;;7.63;3.60;;;;;;;17.70;26.90;101141.92;1716648;81;21519;-64